sensor_id;sensor_type;location;lat;lon;timestamp;P1;durP1;ratioP1;P2;durP2;ratioP2
71162;SDS011;58858;50.948;6.566;2023-02-04T00:08:50;20.63;;;4.85;;
71162;SDS011;58858;50.948;6.566;2023-02-04T00:18:51;31.13;;;6.10;;
71162;SDS011;58858;50.948;6.566;2023-02-04T00:28:52;15.85;;;4.43;;
71162;SDS011;58858;50.948;6.566;2023-02-04T00:38:53;15.73;;;4.05;;
71162;SDS011;58858;50.948;6.566;2023-02-04T00:48:54;18.50;;;5.93;;
71162;SDS011;58858;50.948;6.566;2023-02-04T00:58:56;17.13;;;5.35;;
71162;SDS011;58858;50.948;6.566;2023-02-04T01:08:57;25.88;;;5.50;;
71162;SDS011;58858;50.948;6.566;2023-02-04T01:18:58;16.23;;;3.55;;
71162;SDS011;58858;50.948;6.566;2023-02-04T01:29:00;14.57;;;3.70;;
71162;SDS011;58858;50.948;6.566;2023-02-04T01:39:01;11.88;;;3.45;;
71162;SDS011;58858;50.948;6.566;2023-02-04T01:49:04;16.15;;;4.57;;
71162;SDS011;58858;50.948;6.566;2023-02-04T01:59:10;18.05;;;4.65;;
71162;SDS011;58858;50.948;6.566;2023-02-04T02:09:12;14.57;;;4.22;;
71162;SDS011;58858;50.948;6.566;2023-02-04T02:19:19;21.02;;;5.43;;
71162;SDS011;58858;50.948;6.566;2023-02-04T02:29:26;19.25;;;3.80;;
71162;SDS011;58858;50.948;6.566;2023-02-04T02:39:27;18.70;;;5.13;;
71162;SDS011;58858;50.948;6.566;2023-02-04T02:49:29;19.27;;;4.47;;
71162;SDS011;58858;50.948;6.566;2023-02-04T02:59:30;14.73;;;3.78;;
71162;SDS011;58858;50.948;6.566;2023-02-04T03:09:31;17.02;;;3.83;;
71162;SDS011;58858;50.948;6.566;2023-02-04T03:19:33;15.57;;;3.47;;
71162;SDS011;58858;50.948;6.566;2023-02-04T03:29:41;16.27;;;3.65;;
71162;SDS011;58858;50.948;6.566;2023-02-04T03:39:43;19.85;;;4.63;;
71162;SDS011;58858;50.948;6.566;2023-02-04T03:49:44;28.00;;;6.00;;
71162;SDS011;58858;50.948;6.566;2023-02-04T03:59:46;20.08;;;5.43;;
71162;SDS011;58858;50.948;6.566;2023-02-04T04:09:47;20.20;;;6.15;;
71162;SDS011;58858;50.948;6.566;2023-02-04T04:19:48;23.70;;;6.43;;
71162;SDS011;58858;50.948;6.566;2023-02-04T04:29:49;23.65;;;4.90;;
71162;SDS011;58858;50.948;6.566;2023-02-04T04:39:50;23.27;;;5.72;;
71162;SDS011;58858;50.948;6.566;2023-02-04T04:49:51;17.05;;;4.25;;
71162;SDS011;58858;50.948;6.566;2023-02-04T04:59:52;20.65;;;4.75;;
71162;SDS011;58858;50.948;6.566;2023-02-04T05:09:53;17.02;;;4.57;;
71162;SDS011;58858;50.948;6.566;2023-02-04T05:19:54;21.45;;;4.25;;
71162;SDS011;58858;50.948;6.566;2023-02-04T05:29:55;23.85;;;5.40;;
71162;SDS011;58858;50.948;6.566;2023-02-04T05:39:57;25.08;;;6.30;;
71162;SDS011;58858;50.948;6.566;2023-02-04T05:49:58;20.27;;;4.53;;
71162;SDS011;58858;50.948;6.566;2023-02-04T05:59:59;23.17;;;4.85;;
71162;SDS011;58858;50.948;6.566;2023-02-04T06:10:00;19.75;;;3.88;;
71162;SDS011;58858;50.948;6.566;2023-02-04T06:20:01;26.35;;;4.35;;
71162;SDS011;58858;50.948;6.566;2023-02-04T06:30:02;25.55;;;5.35;;
71162;SDS011;58858;50.948;6.566;2023-02-04T06:40:03;27.10;;;6.93;;
71162;SDS011;58858;50.948;6.566;2023-02-04T06:50:05;18.25;;;5.03;;
71162;SDS011;58858;50.948;6.566;2023-02-04T07:00:07;18.67;;;5.40;;
71162;SDS011;58858;50.948;6.566;2023-02-04T07:10:09;25.73;;;6.00;;
71162;SDS011;58858;50.948;6.566;2023-02-04T07:20:10;23.05;;;7.07;;
71162;SDS011;58858;50.948;6.566;2023-02-04T07:30:12;25.77;;;7.18;;
71162;SDS011;58858;50.948;6.566;2023-02-04T07:40:13;27.13;;;10.10;;
71162;SDS011;58858;50.948;6.566;2023-02-04T07:50:14;22.10;;;7.65;;
71162;SDS011;58858;50.948;6.566;2023-02-04T08:00:15;19.23;;;7.82;;
71162;SDS011;58858;50.948;6.566;2023-02-04T08:10:17;23.13;;;7.78;;
71162;SDS011;58858;50.948;6.566;2023-02-04T08:20:18;33.55;;;9.07;;
71162;SDS011;58858;50.948;6.566;2023-02-04T08:30:19;26.25;;;10.07;;
71162;SDS011;58858;50.948;6.566;2023-02-04T08:40:20;25.85;;;10.98;;
71162;SDS011;58858;50.948;6.566;2023-02-04T08:50:21;17.52;;;7.53;;
71162;SDS011;58858;50.948;6.566;2023-02-04T09:00:22;18.70;;;8.82;;
71162;SDS011;58858;50.948;6.566;2023-02-04T09:10:24;30.45;;;12.77;;
71162;SDS011;58858;50.948;6.566;2023-02-04T09:20:25;34.88;;;13.82;;
71162;SDS011;58858;50.948;6.566;2023-02-04T09:30:26;39.47;;;13.63;;
71162;SDS011;58858;50.948;6.566;2023-02-04T09:40:29;40.88;;;11.73;;
71162;SDS011;58858;50.948;6.566;2023-02-04T09:50:31;33.28;;;11.38;;
71162;SDS011;58858;50.948;6.566;2023-02-04T10:00:33;30.40;;;13.18;;
71162;SDS011;58858;50.948;6.566;2023-02-04T10:10:34;30.20;;;12.52;;
71162;SDS011;58858;50.948;6.566;2023-02-04T10:20:35;31.58;;;11.63;;
71162;SDS011;58858;50.948;6.566;2023-02-04T10:30:38;36.45;;;9.30;;
71162;SDS011;58858;50.948;6.566;2023-02-04T10:40:43;33.13;;;8.65;;
71162;SDS011;58858;50.948;6.566;2023-02-04T10:50:46;30.67;;;10.02;;
71162;SDS011;58858;50.948;6.566;2023-02-04T11:00:47;23.25;;;8.00;;
71162;SDS011;58858;50.948;6.566;2023-02-04T11:10:49;21.70;;;7.82;;
71162;SDS011;58858;50.948;6.566;2023-02-04T11:20:52;30.20;;;8.73;;
71162;SDS011;58858;50.948;6.566;2023-02-04T11:30:59;27.50;;;7.13;;
71162;SDS011;58858;50.948;6.566;2023-02-04T11:41:01;24.20;;;7.18;;
71162;SDS011;58858;50.948;6.566;2023-02-04T11:51:08;22.38;;;7.78;;
71162;SDS011;58858;50.948;6.566;2023-02-04T12:01:16;33.40;;;10.05;;
71162;SDS011;58858;50.948;6.566;2023-02-04T12:11:25;26.17;;;8.77;;
71162;SDS011;58858;50.948;6.566;2023-02-04T12:21:27;33.50;;;8.75;;
71162;SDS011;58858;50.948;6.566;2023-02-04T12:31:28;29.55;;;6.55;;
71162;SDS011;58858;50.948;6.566;2023-02-04T12:41:29;23.67;;;6.28;;
71162;SDS011;58858;50.948;6.566;2023-02-04T12:51:30;23.45;;;6.22;;
71162;SDS011;58858;50.948;6.566;2023-02-04T13:01:32;32.10;;;8.70;;
71162;SDS011;58858;50.948;6.566;2023-02-04T13:11:33;21.17;;;4.93;;
71162;SDS011;58858;50.948;6.566;2023-02-04T13:21:34;22.52;;;5.18;;
71162;SDS011;58858;50.948;6.566;2023-02-04T13:31:35;21.80;;;5.38;;
71162;SDS011;58858;50.948;6.566;2023-02-04T13:41:37;16.20;;;4.63;;
71162;SDS011;58858;50.948;6.566;2023-02-04T13:51:38;19.40;;;5.70;;
71162;SDS011;58858;50.948;6.566;2023-02-04T14:01:39;18.48;;;5.45;;
71162;SDS011;58858;50.948;6.566;2023-02-04T14:11:40;20.50;;;5.30;;
71162;SDS011;58858;50.948;6.566;2023-02-04T14:21:43;22.25;;;6.05;;
71162;SDS011;58858;50.948;6.566;2023-02-04T14:31:45;24.05;;;7.10;;
71162;SDS011;58858;50.948;6.566;2023-02-04T14:41:47;29.70;;;9.68;;
71162;SDS011;58858;50.948;6.566;2023-02-04T14:51:48;32.28;;;6.90;;
71162;SDS011;58858;50.948;6.566;2023-02-04T15:01:49;17.27;;;6.60;;
71162;SDS011;58858;50.948;6.566;2023-02-04T15:11:50;24.98;;;6.03;;
71162;SDS011;58858;50.948;6.566;2023-02-04T15:21:51;16.55;;;4.60;;
71162;SDS011;58858;50.948;6.566;2023-02-04T15:31:53;16.50;;;4.55;;
71162;SDS011;58858;50.948;6.566;2023-02-04T15:41:55;21.85;;;5.03;;
71162;SDS011;58858;50.948;6.566;2023-02-04T15:51:56;20.13;;;4.80;;
71162;SDS011;58858;50.948;6.566;2023-02-04T16:01:57;22.40;;;5.63;;
71162;SDS011;58858;50.948;6.566;2023-02-04T16:11:58;28.75;;;5.72;;
71162;SDS011;58858;50.948;6.566;2023-02-04T16:22:00;23.13;;;6.30;;
71162;SDS011;58858;50.948;6.566;2023-02-04T16:32:01;19.67;;;5.53;;
71162;SDS011;58858;50.948;6.566;2023-02-04T16:42:02;17.05;;;5.05;;
71162;SDS011;58858;50.948;6.566;2023-02-04T16:52:05;28.02;;;6.20;;
71162;SDS011;58858;50.948;6.566;2023-02-04T17:02:08;21.13;;;5.47;;
71162;SDS011;58858;50.948;6.566;2023-02-04T17:12:09;13.18;;;5.35;;
71162;SDS011;58858;50.948;6.566;2023-02-04T17:22:10;23.85;;;5.90;;
71162;SDS011;58858;50.948;6.566;2023-02-04T17:32:11;21.17;;;5.25;;
71162;SDS011;58858;50.948;6.566;2023-02-04T17:42:13;19.85;;;6.15;;
71162;SDS011;58858;50.948;6.566;2023-02-04T17:52:14;19.83;;;6.25;;
71162;SDS011;58858;50.948;6.566;2023-02-04T18:02:28;20.30;;;6.07;;
71162;SDS011;58858;50.948;6.566;2023-02-04T18:12:30;16.02;;;4.75;;
71162;SDS011;58858;50.948;6.566;2023-02-04T18:22:31;22.85;;;5.43;;
71162;SDS011;58858;50.948;6.566;2023-02-04T18:32:36;15.88;;;5.32;;
71162;SDS011;58858;50.948;6.566;2023-02-04T18:42:39;29.23;;;5.25;;
71162;SDS011;58858;50.948;6.566;2023-02-04T18:52:44;19.38;;;6.90;;
71162;SDS011;58858;50.948;6.566;2023-02-04T19:02:59;21.90;;;7.25;;
71162;SDS011;58858;50.948;6.566;2023-02-04T19:13:24;21.83;;;7.65;;
71162;SDS011;58858;50.948;6.566;2023-02-04T19:23:32;23.83;;;9.70;;
71162;SDS011;58858;50.948;6.566;2023-02-04T19:33:36;30.05;;;10.73;;
71162;SDS011;58858;50.948;6.566;2023-02-04T19:43:41;26.38;;;11.45;;
71162;SDS011;58858;50.948;6.566;2023-02-04T19:53:42;32.15;;;11.18;;
71162;SDS011;58858;50.948;6.566;2023-02-04T20:03:47;23.13;;;10.05;;
71162;SDS011;58858;50.948;6.566;2023-02-04T20:13:49;27.98;;;14.00;;
71162;SDS011;58858;50.948;6.566;2023-02-04T20:23:55;22.65;;;9.70;;
71162;SDS011;58858;50.948;6.566;2023-02-04T20:33:58;25.65;;;10.95;;
71162;SDS011;58858;50.948;6.566;2023-02-04T20:44:00;37.85;;;12.60;;
71162;SDS011;58858;50.948;6.566;2023-02-04T20:54:07;28.33;;;12.75;;
71162;SDS011;58858;50.948;6.566;2023-02-04T21:04:28;26.02;;;10.00;;
71162;SDS011;58858;50.948;6.566;2023-02-04T21:14:38;22.45;;;9.15;;
71162;SDS011;58858;50.948;6.566;2023-02-04T21:24:39;29.60;;;11.02;;
71162;SDS011;58858;50.948;6.566;2023-02-04T21:34:41;25.65;;;9.25;;
71162;SDS011;58858;50.948;6.566;2023-02-04T21:44:42;24.88;;;9.52;;
71162;SDS011;58858;50.948;6.566;2023-02-04T21:54:43;24.52;;;9.50;;
71162;SDS011;58858;50.948;6.566;2023-02-04T22:04:44;36.17;;;15.10;;
71162;SDS011;58858;50.948;6.566;2023-02-04T22:14:45;30.95;;;12.25;;
71162;SDS011;58858;50.948;6.566;2023-02-04T22:25:05;26.60;;;11.93;;
71162;SDS011;58858;50.948;6.566;2023-02-04T22:35:07;36.33;;;12.93;;
71162;SDS011;58858;50.948;6.566;2023-02-04T22:45:12;33.50;;;10.88;;
71162;SDS011;58858;50.948;6.566;2023-02-04T22:55:13;29.60;;;11.93;;
71162;SDS011;58858;50.948;6.566;2023-02-04T23:05:14;26.75;;;11.52;;
71162;SDS011;58858;50.948;6.566;2023-02-04T23:15:15;25.95;;;10.20;;
71162;SDS011;58858;50.948;6.566;2023-02-04T23:25:16;26.73;;;9.18;;
71162;SDS011;58858;50.948;6.566;2023-02-04T23:35:17;24.08;;;9.68;;
71162;SDS011;58858;50.948;6.566;2023-02-04T23:45:19;24.85;;;10.50;;
71162;SDS011;58858;50.948;6.566;2023-02-04T23:55:20;30.52;;;10.68;;
